Terminal Aerodrome Forecast
Issued by NWS Omaha/Valley, NE

Home | Current Version | Previous Version | Text Only | Print | Product List | Glossary On
Versions: 1 2 3 4 5 6 7 8 9 10 11 12 13 14 15 16 17 18 19 20 21 22 23 24 25 26 27 28 29 30 31 32 33 34 35 36 37 38
000
FTUS43 KOAX 112248 AAB
TAFOFK
TAF AMD
KOFK 112248Z 1123/1218 11006KT P6SM SCT025 BKN120
     FM120300 09004KT P6SM SCT040 OVC100
      TEMPO 1203/1207 5SM -TSRA BKN040CB
     FM120700 12008KT P6SM BKN050
      TEMPO 1207/1210 3SM TSRA OVC030CB
     FM121000 09006KT P6SM SCT015 BKN100
      TEMPO 1210/1213 5SM BR=

USA.gov is the U.S. government's official web portal to all federal, state and local government web resources and services.